createdAt,value
2023-01-01T00:01:24.598Z,123.25
2023-01-01T00:03:52.263Z,125.40
2023-01-01T00:06:19.253Z,130.65
2023-01-01T00:08:47.123Z,122.55
2023-01-01T00:11:14.382Z,96.00
2023-01-01T00:13:42.488Z,69.85
2023-01-01T00:16:12.002Z,85.75
2023-01-01T00:18:39.474Z,65.25
2023-01-01T00:21:12.348Z,71.95
2023-01-01T00:23:39.875Z,80.75
2023-01-01T00:26:14.596Z,71.53
2023-01-01T00:28:41.947Z,66.55
2023-01-01T00:31:10.330Z,63.78
2023-01-01T00:33:37.475Z,50.50
2023-01-01T00:36:24.231Z,60.38
2023-01-01T00:38:51.272Z,55.20
2023-01-01T00:41:19.100Z,67.20
2023-01-01T00:43:45.990Z,61.65
2023-01-01T00:46:13.548Z,67.55
2023-01-01T00:48:40.737Z,62.10
2023-01-01T00:51:08.287Z,74.45
2023-01-01T00:53:35.158Z,94.85
2023-01-01T00:56:02.352Z,90.55
2023-01-01T00:58:29.189Z,87.47
2023-01-01T01:00:56.288Z,77.35
2023-01-01T01:03:29.331Z,83.53
2023-01-01T01:06:05.221Z,83.35
2023-01-01T01:08:34.082Z,75.93
2023-01-01T01:11:10.024Z,82.82
2023-01-01T01:13:38.090Z,70.68
2023-01-01T01:16:10.730Z,75.55
2023-01-01T01:18:38.170Z,76.70
2023-01-01T01:21:05.987Z,84.70
2023-01-01T01:23:33.605Z,82.43
2023-01-01T01:26:15.199Z,72.88
2023-01-01T01:28:48.855Z,84.43
2023-01-01T01:31:17.743Z,85.78
2023-01-01T01:33:45.737Z,92.85
2023-01-01T01:36:13.120Z,94.93
2023-01-01T01:38:40.469Z,96.32
2023-01-01T01:41:07.749Z,104.63
2023-01-01T01:43:34.475Z,110.10
2023-01-01T01:46:04.815Z,100.43
2023-01-01T01:48:43.555Z,85.57
2023-01-01T01:51:13.311Z,88.07
2023-01-01T01:53:46.303Z,91.07
2023-01-01T01:56:17.968Z,91.65
2023-01-01T01:58:44.801Z,81.80
2023-01-01T02:01:11.839Z,81.80
2023-01-01T02:04:01.465Z,82.75
2023-01-01T02:06:30.614Z,78.25
2023-01-01T02:08:59.332Z,80.03
2023-01-01T02:11:26.357Z,63.70
2023-01-01T02:13:56.085Z,63.97
2023-01-01T02:16:30.235Z,53.10
2023-01-01T02:19:18.368Z,53.28
2023-01-01T02:22:09.760Z,36.97
2023-01-01T02:24:51.360Z,34.92
2023-01-01T02:27:24.174Z,24.63
2023-01-01T02:30:03.434Z,27.15
2023-01-01T02:32:38.247Z,21.85
2023-01-01T02:35:35.668Z,24.55
2023-01-01T02:38:41.747Z,33.40
2023-01-01T02:41:16.474Z,38.15
2023-01-01T02:43:43.580Z,53.75
2023-01-01T02:46:12.618Z,74.05
2023-01-01T02:48:51.708Z,74.03
2023-01-01T02:51:46.532Z,71.88
2023-01-01T02:54:20.078Z,59.50
2023-01-01T02:57:10.809Z,66.40
2023-01-01T03:00:02.260Z,67.00
2023-01-01T03:02:58.119Z,70.55
2023-01-01T03:06:17.237Z,67.45
2023-01-01T03:09:25.162Z,64.72
2023-01-01T03:12:10.986Z,64.63
2023-01-01T03:15:13.228Z,58.25
2023-01-01T03:17:47.951Z,60.03
2023-01-01T03:20:39.589Z,64.07
2023-01-01T03:23:12.464Z,63.53
2023-01-01T03:25:45.730Z,58.42
2023-01-01T03:28:22.801Z,57.90
2023-01-01T03:30:52.849Z,66.88
2023-01-01T03:34:00.323Z,63.60
2023-01-01T03:36:40.806Z,57.67
2023-01-01T03:39:21.765Z,68.82
2023-01-01T03:41:54.612Z,66.53
2023-01-01T03:44:52.343Z,69.25
2023-01-01T03:47:20.335Z,73.72
2023-01-01T03:49:47.291Z,66.72
2023-01-01T03:52:32.736Z,61.67
2023-01-01T03:55:09.360Z,68.40
2023-01-01T03:57:57.901Z,65.15
2023-01-01T04:00:33.737Z,71.40
2023-01-01T04:03:13.941Z,71.95
2023-01-01T04:05:42.274Z,60.22
2023-01-01T04:10:59.758Z,58.92
2023-01-01T04:13:26.671Z,55.92
2023-01-01T04:15:53.490Z,60.03
2023-01-01T04:18:20.338Z,57.92
2023-01-01T04:20:47.309Z,57.13
2023-01-01T04:23:14.063Z,63.67
2023-01-01T04:25:40.815Z,54.88
2023-01-01T04:28:07.638Z,58.17
2023-01-01T04:33:00.122Z,56.50
2023-01-01T04:35:27.033Z,48.88
2023-01-01T04:37:53.945Z,61.28
2023-01-01T04:40:20.812Z,56.88
2023-01-01T04:42:47.610Z,52.40
2023-01-01T04:45:15.509Z,57.30
2023-01-01T04:47:42.969Z,46.20
2023-01-01T04:50:09.796Z,57.75
2023-01-01T04:52:36.997Z,59.50
2023-01-01T04:55:04.437Z,59.47
2023-01-01T04:57:31.855Z,64.10
2023-01-01T04:59:58.627Z,59.03
2023-01-01T05:02:29.046Z,60.00
2023-01-01T05:04:55.930Z,66.43
2023-01-01T05:07:23.973Z,76.57
2023-01-01T05:09:51.545Z,80.72
2023-01-01T05:12:18.350Z,76.50
2023-01-01T05:14:45.208Z,79.78
2023-01-01T05:17:12.255Z,74.43
2023-01-01T05:19:39.152Z,72.53
2023-01-01T05:22:10.678Z,78.95
2023-01-01T05:24:38.419Z,69.40
2023-01-01T05:27:05.257Z,81.38
2023-01-01T05:29:32.186Z,69.28
2023-01-01T05:32:05.708Z,63.13
2023-01-01T05:36:58.747Z,68.10
2023-01-01T05:39:31.978Z,69.43
2023-01-01T05:42:16.042Z,64.68
2023-01-01T05:44:43.002Z,66.63
2023-01-01T05:47:09.934Z,59.63
2023-01-01T05:49:36.875Z,66.05
2023-01-01T05:52:04.246Z,75.47
2023-01-01T05:54:31.196Z,57.72
2023-01-01T05:56:57.969Z,62.50
2023-01-01T05:59:24.907Z,61.03
2023-01-01T06:01:51.815Z,57.75
2023-01-01T06:04:18.847Z,60.42
2023-01-01T06:06:45.795Z,55.92
2023-01-01T06:09:12.880Z,69.78
2023-01-01T06:11:39.826Z,63.38
2023-01-01T06:14:06.874Z,61.28
2023-01-01T06:16:34.424Z,56.97
2023-01-01T06:19:01.233Z,60.30
2023-01-01T06:21:29.769Z,56.03
2023-01-01T06:23:59.176Z,62.13
2023-01-01T06:26:31.763Z,51.33
2023-01-01T06:29:00.002Z,56.85
2023-01-01T06:31:27.927Z,64.53
2023-01-01T06:33:55.317Z,52.35
2023-01-01T06:36:24.472Z,61.38
2023-01-01T06:38:54.269Z,50.10
2023-01-01T06:41:23.480Z,57.15
2023-01-01T06:43:50.780Z,49.58
2023-01-01T06:46:21.437Z,50.03
2023-01-01T06:48:50.121Z,56.42
2023-01-01T06:51:19.900Z,67.65
2023-01-01T06:53:47.589Z,55.92
2023-01-01T06:56:14.881Z,61.97
2023-01-01T06:58:41.689Z,65.45
2023-01-01T07:01:16.908Z,57.00
2023-01-01T07:03:45.278Z,59.80
2023-01-01T07:06:12.106Z,62.45
2023-01-01T07:08:39.409Z,62.95
2023-01-01T07:11:06.241Z,55.58
2023-01-01T07:13:33.216Z,61.15
2023-01-01T07:16:00.735Z,58.80
2023-01-01T07:18:27.999Z,61.15
2023-01-01T07:21:03.733Z,68.57
2023-01-01T07:23:33.462Z,60.75
2023-01-01T07:26:00.718Z,54.83
2023-01-01T07:28:28.007Z,69.82
2023-01-01T07:30:54.859Z,71.43
2023-01-01T07:33:23.776Z,78.40
2023-01-01T07:35:50.980Z,67.10
2023-01-01T07:38:17.742Z,75.60
2023-01-01T07:40:44.559Z,70.85
2023-01-01T07:43:12.802Z,69.85
2023-01-01T07:45:40.175Z,80.75
2023-01-01T07:48:09.512Z,66.75
2023-01-01T07:50:38.363Z,84.60
2023-01-01T07:53:05.243Z,73.47
2023-01-01T07:55:32.565Z,83.22
2023-01-01T07:57:59.359Z,85.10
2023-01-01T08:00:26.276Z,83.53
2023-01-01T08:02:53.158Z,83.88
2023-01-01T08:05:26.266Z,87.25
2023-01-01T08:07:53.711Z,95.28
2023-01-01T08:10:21.111Z,91.03
2023-01-01T08:12:48.509Z,95.90
2023-01-01T08:15:16.430Z,81.18
2023-01-01T08:17:46.862Z,79.22
2023-01-01T08:20:14.440Z,89.68
2023-01-01T08:22:41.144Z,69.72
2023-01-01T08:25:08.752Z,82.28
2023-01-01T08:27:35.544Z,86.78
2023-01-01T08:30:02.574Z,79.40
2023-01-01T08:32:29.619Z,88.53
2023-01-01T08:34:57.103Z,82.57
2023-01-01T08:37:24.314Z,84.90
2023-01-01T08:39:52.373Z,84.43
2023-01-01T08:42:19.145Z,95.20
2023-01-01T08:44:46.035Z,79.35
2023-01-01T08:47:19.809Z,81.32
2023-01-01T08:49:46.612Z,77.55
2023-01-01T08:52:16.841Z,74.22
2023-01-01T08:54:44.024Z,78.60
2023-01-01T08:57:11.431Z,73.80
2023-01-01T08:59:38.200Z,75.72
2023-01-01T09:02:05.206Z,75.75
2023-01-01T09:04:32.328Z,80.80
2023-01-01T09:10:00.070Z,89.15
2023-01-01T09:12:27.467Z,74.53
2023-01-01T09:14:59.204Z,73.90
2023-01-01T09:17:25.886Z,77.10
2023-01-01T09:19:52.695Z,95.47
2023-01-01T09:22:19.355Z,90.38
2023-01-01T09:24:46.062Z,107.30
2023-01-01T09:27:12.930Z,97.68
2023-01-01T09:29:39.589Z,83.70
2023-01-01T09:32:06.335Z,85.97
2023-01-01T09:34:37.000Z,87.85
2023-01-01T09:37:03.783Z,103.00
2023-01-01T09:39:30.550Z,107.82
2023-01-01T09:42:15.709Z,106.10
2023-01-01T09:44:45.152Z,106.15
2023-01-01T09:47:38.599Z,105.00
2023-01-01T09:50:11.813Z,119.25
2023-01-01T09:53:00.180Z,109.30
2023-01-01T09:55:42.236Z,116.68
2023-01-01T09:58:14.989Z,102.20
2023-01-01T10:00:54.766Z,113.30
2023-01-01T10:03:50.618Z,120.90
2023-01-01T10:06:30.290Z,115.00
2023-01-01T10:09:26.897Z,117.82
2023-01-01T10:12:02.809Z,112.10
2023-01-01T10:14:37.345Z,123.43
2023-01-01T10:17:15.943Z,100.55
2023-01-01T10:20:23.294Z,103.00
2023-01-01T10:22:55.808Z,107.95
2023-01-01T10:25:26.556Z,106.50
2023-01-01T10:28:02.756Z,105.40
2023-01-01T10:30:30.241Z,96.32
2023-01-01T10:32:58.587Z,89.30
2023-01-01T10:35:57.221Z,85.72
2023-01-01T10:38:26.346Z,75.10
2023-01-01T10:40:58.730Z,65.10
2023-01-01T10:43:25.436Z,78.47
2023-01-01T10:45:54.758Z,65.45
2023-01-01T10:48:23.839Z,64.72
2023-01-01T10:50:56.688Z,62.28
2023-01-01T10:53:29.241Z,65.00
2023-01-01T10:55:58.896Z,62.78
2023-01-01T10:58:43.012Z,60.28
2023-01-01T11:01:19.793Z,68.78
2023-01-01T11:03:54.459Z,64.32
2023-01-01T11:06:24.879Z,62.97
2023-01-01T11:09:07.970Z,53.70
2023-01-01T11:11:47.128Z,58.40
2023-01-01T11:14:27.636Z,61.33
2023-01-01T11:16:56.013Z,64.70
2023-01-01T11:19:36.696Z,66.35
2023-01-01T11:22:05.156Z,61.55
2023-01-01T11:24:34.275Z,61.78
2023-01-01T11:27:23.933Z,53.00
2023-01-01T11:29:53.318Z,55.90
2023-01-01T11:32:34.004Z,52.80
2023-01-01T11:35:06.385Z,60.80
2023-01-01T11:37:36.340Z,45.45
2023-01-01T11:40:05.619Z,49.13
2023-01-01T11:42:37.189Z,41.55
2023-01-01T11:45:03.808Z,32.33
2023-01-01T11:47:30.490Z,39.80
2023-01-01T11:50:14.336Z,35.92
2023-01-01T11:52:49.758Z,38.22
2023-01-01T11:55:16.460Z,40.55
2023-01-01T11:57:51.320Z,41.85
2023-01-01T12:00:25.262Z,48.65
2023-01-01T12:03:01.027Z,41.88
2023-01-01T12:05:49.295Z,37.28
2023-01-01T12:08:23.518Z,37.60
2023-01-01T12:10:58.400Z,33.72
2023-01-01T12:13:30.165Z,39.42
2023-01-01T12:15:59.749Z,40.00
2023-01-01T12:18:50.245Z,42.92
2023-01-01T12:21:25.387Z,29.50
2023-01-01T12:23:52.285Z,39.70
2023-01-01T12:26:49.303Z,33.78
2023-01-01T12:29:24.929Z,30.00
2023-01-01T12:32:27.933Z,31.25
2023-01-01T12:35:32.066Z,26.10
2023-01-01T12:38:20.073Z,30.58
2023-01-01T12:40:55.000Z,27.95
2023-01-01T12:43:43.552Z,29.00
2023-01-01T12:46:18.073Z,30.27
2023-01-01T12:49:06.023Z,28.10
2023-01-01T12:52:05.584Z,32.63
2023-01-01T12:54:53.271Z,37.10
2023-01-01T12:57:34.870Z,44.78
2023-01-01T13:00:11.826Z,32.58
2023-01-01T13:02:50.161Z,25.30
2023-01-01T13:05:31.343Z,26.02
2023-01-01T13:08:03.551Z,26.40
2023-01-01T13:10:37.520Z,26.17
2023-01-01T13:13:05.407Z,32.00
2023-01-01T13:15:39.078Z,26.33
2023-01-01T13:18:19.977Z,25.92
2023-01-01T13:20:56.087Z,35.03
2023-01-01T13:23:31.644Z,34.90
2023-01-01T13:26:23.197Z,26.70
2023-01-01T13:28:58.759Z,30.67
2023-01-01T13:31:41.338Z,28.10
2023-01-01T13:34:38.018Z,36.22
2023-01-01T13:37:11.099Z,34.72
2023-01-01T13:40:23.465Z,28.85
2023-01-01T13:42:54.142Z,25.40
2023-01-01T13:48:19.021Z,23.75
2023-01-01T13:50:54.662Z,22.00
2023-01-01T13:53:34.445Z,26.83
2023-01-01T13:56:25.886Z,28.08
2023-01-01T13:58:55.660Z,22.30
2023-01-01T14:01:40.925Z,26.15
2023-01-01T14:04:33.073Z,29.25
2023-01-01T14:07:24.943Z,31.98
2023-01-01T14:09:51.534Z,25.52
2023-01-01T14:12:20.876Z,25.63
2023-01-01T14:14:47.967Z,27.60
2023-01-01T14:17:17.252Z,22.80
2023-01-01T14:19:44.666Z,24.98
2023-01-01T14:22:15.849Z,23.08
2023-01-01T14:24:46.268Z,26.08
2023-01-01T14:27:21.825Z,24.55
2023-01-01T14:29:51.026Z,25.23
2023-01-01T14:32:24.182Z,24.90
2023-01-01T14:35:02.323Z,24.85
2023-01-01T14:37:29.129Z,24.58
2023-01-01T14:40:15.998Z,22.10
2023-01-01T14:42:43.347Z,26.20
2023-01-01T14:45:18.466Z,24.52
2023-01-01T14:47:54.957Z,21.13
2023-01-01T14:50:27.073Z,36.22
2023-01-01T14:53:14.076Z,35.38
2023-01-01T14:55:43.842Z,32.13
2023-01-01T14:58:23.425Z,34.70
2023-01-01T15:00:51.140Z,43.05
2023-01-01T15:03:23.584Z,43.97
2023-01-01T15:06:03.357Z,41.75
2023-01-01T15:08:30.298Z,57.55
2023-01-01T15:10:57.470Z,45.15
2023-01-01T15:13:27.141Z,46.22
2023-01-01T15:16:14.913Z,43.92
2023-01-01T15:18:50.793Z,38.28
2023-01-01T15:21:38.315Z,37.58
2023-01-01T15:24:11.264Z,44.75
2023-01-01T15:26:49.014Z,38.65
2023-01-01T15:29:23.652Z,38.28
2023-01-01T15:31:55.964Z,35.20
2023-01-01T15:34:27.843Z,36.88
2023-01-01T15:36:56.683Z,27.15
2023-01-01T15:39:23.999Z,32.65
2023-01-01T15:41:52.697Z,29.77
2023-01-01T15:44:28.507Z,28.33
2023-01-01T15:47:13.976Z,25.83
2023-01-01T15:49:40.973Z,26.75
2023-01-01T15:52:20.349Z,25.95
2023-01-01T15:54:47.176Z,30.77
2023-01-01T15:57:21.241Z,24.08
2023-01-01T15:59:50.863Z,26.25
2023-01-01T16:02:23.135Z,25.65
2023-01-01T16:04:50.892Z,29.23
2023-01-01T16:07:23.434Z,24.98
2023-01-01T16:09:57.325Z,25.63
2023-01-01T16:12:24.315Z,22.90
2023-01-01T16:14:51.247Z,34.58
2023-01-01T16:17:20.848Z,27.13
2023-01-01T16:19:48.797Z,23.27
2023-01-01T16:22:17.946Z,23.25
2023-01-01T16:24:45.616Z,23.45
2023-01-01T16:27:12.740Z,23.02
2023-01-01T16:29:43.193Z,21.33
2023-01-01T16:32:17.139Z,19.92
2023-01-01T16:34:44.092Z,22.73
2023-01-01T16:37:11.028Z,23.65
2023-01-01T16:39:37.777Z,25.02
2023-01-01T16:42:04.631Z,23.30
2023-01-01T16:44:31.302Z,24.13
2023-01-01T16:46:57.951Z,23.77
2023-01-01T16:49:24.654Z,23.77
2023-01-01T16:51:51.265Z,23.40
2023-01-01T16:54:18.121Z,39.97
2023-01-01T16:56:44.858Z,42.75
2023-01-01T16:59:11.581Z,83.68
2023-01-01T17:01:38.481Z,68.25
2023-01-01T17:04:05.174Z,30.30
2023-01-01T17:06:31.806Z,34.92
2023-01-01T17:09:01.775Z,57.90
2023-01-01T17:11:28.528Z,51.13
2023-01-01T17:13:55.274Z,51.10
2023-01-01T17:16:27.283Z,46.95
2023-01-01T17:21:43.454Z,53.17
2023-01-01T17:24:10.151Z,53.90
2023-01-01T17:26:37.043Z,55.05
2023-01-01T17:29:05.210Z,49.90
2023-01-01T17:31:32.029Z,39.90
2023-01-01T17:33:58.926Z,43.33
2023-01-01T17:36:28.682Z,42.15
2023-01-01T17:38:56.099Z,30.15
2023-01-01T17:41:23.007Z,46.15
2023-01-01T17:43:51.655Z,34.50
2023-01-01T17:46:23.681Z,41.40
2023-01-01T17:48:50.922Z,50.55
2023-01-01T17:51:19.091Z,73.13
2023-01-01T17:53:45.996Z,58.67
2023-01-01T17:56:16.198Z,65.07
2023-01-01T17:58:44.279Z,77.00
2023-01-01T18:01:10.998Z,77.88
2023-01-01T18:03:39.140Z,71.15
2023-01-01T18:06:06.725Z,84.63
2023-01-01T18:08:33.377Z,91.20
2023-01-01T18:11:00.478Z,93.63
2023-01-01T18:13:27.607Z,84.03
2023-01-01T18:15:54.367Z,81.70
2023-01-01T18:18:21.254Z,55.08
2023-01-01T18:20:47.947Z,57.10
2023-01-01T18:23:14.641Z,68.13
2023-01-01T18:25:41.373Z,62.03
2023-01-01T18:28:10.544Z,72.57
2023-01-01T18:30:37.462Z,62.58
2023-01-01T18:33:04.329Z,46.90
2023-01-01T18:35:31.150Z,46.40
2023-01-01T18:37:58.194Z,40.58
2023-01-01T18:40:27.273Z,33.50
2023-01-01T18:43:24.413Z,49.13
2023-01-01T18:45:51.177Z,45.33
2023-01-01T18:48:21.666Z,48.17
2023-01-01T18:50:48.595Z,43.42
2023-01-01T18:53:24.318Z,44.60
2023-01-01T18:55:53.740Z,28.73
2023-01-01T18:58:24.958Z,22.02
2023-01-01T19:00:54.035Z,18.88
2023-01-01T19:03:28.736Z,22.92
2023-01-01T19:05:56.840Z,34.95
2023-01-01T19:08:26.913Z,57.28
2023-01-01T19:10:55.347Z,50.97
2023-01-01T19:13:23.707Z,96.68
2023-01-01T19:15:56.188Z,80.88
2023-01-01T19:18:26.094Z,80.68
2023-01-01T19:21:13.236Z,79.28
2023-01-01T19:23:53.599Z,75.95
2023-01-01T19:26:26.115Z,79.68
2023-01-01T19:29:58.595Z,76.75
2023-01-01T19:40:59.701Z,81.10
2023-01-01T19:43:26.596Z,72.55
2023-01-01T19:45:57.212Z,76.55
2023-01-01T19:48:39.754Z,72.05
2023-01-01T19:51:07.511Z,70.95
2023-01-01T19:53:34.265Z,86.43
2023-01-01T19:56:01.296Z,78.15
2023-01-01T19:58:28.893Z,77.22
2023-01-01T20:00:55.846Z,74.38
2023-01-01T20:03:52.922Z,86.47
2023-01-01T20:06:11.377Z,74.28
2023-01-01T20:08:40.628Z,87.47
2023-01-01T20:11:08.735Z,74.68
2023-01-01T20:13:35.757Z,86.22
2023-01-01T20:16:03.243Z,68.78
2023-01-01T20:18:30.704Z,76.20
2023-01-01T20:21:20.421Z,69.20
2023-01-01T20:23:53.592Z,57.30
2023-01-01T20:26:21.203Z,49.08
2023-01-01T20:29:06.458Z,49.30
2023-01-01T20:31:33.514Z,48.45
2023-01-01T20:34:00.291Z,49.05
2023-01-01T20:36:45.668Z,49.97
2023-01-01T20:39:13.005Z,49.30
2023-01-01T20:41:39.703Z,45.90
2023-01-01T20:44:06.671Z,51.15
2023-01-01T20:46:33.569Z,51.25
2023-01-01T20:49:00.316Z,45.65
2023-01-01T20:51:27.558Z,45.63
2023-01-01T20:53:54.289Z,44.85
2023-01-01T20:56:21.095Z,46.20
2023-01-01T20:58:51.122Z,44.50
2023-01-01T21:01:21.622Z,46.60
2023-01-01T21:03:48.487Z,47.60
2023-01-01T21:06:21.834Z,43.70
2023-01-01T21:08:50.949Z,46.53
2023-01-01T21:11:17.684Z,43.97
2023-01-01T21:13:45.135Z,50.33
2023-01-01T21:16:21.285Z,51.70
2023-01-01T21:18:48.860Z,48.40
2023-01-01T21:21:41.932Z,63.13
2023-01-01T21:24:27.601Z,44.47
2023-01-01T21:27:02.888Z,45.65
2023-01-01T21:29:40.196Z,43.22
2023-01-01T21:32:23.943Z,58.33
2023-01-01T21:34:53.700Z,60.30
2023-01-01T21:37:47.800Z,68.88
2023-01-01T21:40:40.503Z,65.90
2023-01-01T21:43:38.292Z,70.10
2023-01-01T21:46:08.112Z,59.83
2023-01-01T21:48:39.790Z,59.22
2023-01-01T21:51:19.758Z,57.33
2023-01-01T21:53:46.654Z,61.97
2023-01-01T21:56:32.199Z,56.75
2023-01-01T21:59:27.933Z,50.13
2023-01-01T22:01:56.190Z,42.05
2023-01-01T22:04:26.746Z,46.30
2023-01-01T22:07:00.877Z,48.15
2023-01-01T22:09:36.208Z,49.95
2023-01-01T22:12:18.146Z,45.22
2023-01-01T22:14:47.788Z,49.55
2023-01-01T22:17:23.515Z,46.28
2023-01-01T22:19:51.106Z,48.55
2023-01-01T22:22:21.338Z,50.63
2023-01-01T22:24:55.175Z,56.15
2023-01-01T22:27:35.622Z,53.50
2023-01-01T22:30:08.363Z,50.83
2023-01-01T22:32:36.972Z,44.70
2023-01-01T22:35:18.123Z,30.85
2023-01-01T22:37:54.064Z,29.35
2023-01-01T22:40:27.955Z,34.00
2023-01-01T22:43:03.047Z,38.35
2023-01-01T22:45:30.463Z,26.40
2023-01-01T22:48:03.859Z,25.65
2023-01-01T22:50:31.764Z,26.95
2023-01-01T22:52:58.689Z,27.05
2023-01-01T22:55:25.776Z,25.25
2023-01-01T22:57:52.629Z,28.60
2023-01-01T23:00:19.535Z,34.40
2023-01-01T23:02:46.445Z,34.50
2023-01-01T23:05:13.297Z,37.22
2023-01-01T23:07:42.415Z,29.30
2023-01-01T23:10:14.179Z,29.33
2023-01-01T23:12:41.252Z,26.40
2023-01-01T23:15:27.294Z,26.88
2023-01-01T23:17:54.053Z,27.73
2023-01-01T23:20:20.925Z,29.48
2023-01-01T23:22:51.424Z,29.92
2023-01-01T23:25:19.687Z,29.30
2023-01-01T23:27:48.107Z,31.38
2023-01-01T23:30:15.406Z,37.83
2023-01-01T23:32:42.832Z,43.78
2023-01-01T23:35:11.003Z,50.15
2023-01-01T23:37:38.893Z,59.42
2023-01-01T23:40:06.302Z,56.75
2023-01-01T23:42:33.052Z,61.92
2023-01-01T23:45:00.005Z,54.95
2023-01-01T23:47:26.944Z,50.15
2023-01-01T23:49:53.730Z,50.30
2023-01-01T23:52:20.785Z,47.03
2023-01-01T23:54:47.591Z,53.50
2023-01-01T23:57:14.446Z,45.72
2023-01-01T23:59:41.333Z,48.08
